Time;durP1;ratioP1;P1;durP2;ratioP2;P2;SDS_P1;SDS_P2;PMS_P1;PMS_P2;Temp;Humidity;BMP_temperature;BMP_pressure;BME280_temperature;BME280_humidity;BME280_pressure;Samples;Min_cycle;Max_cycle;Signal;HPM_P1;HPM_P2
2021/11/16 00:01:38;;;;;;;60.63;25.35;;;6.90;99.90;;;;;;5089723;28;20119;-71
2021/11/16 00:04:05;;;;;;;68.28;25.95;;;6.90;99.90;;;;;;5088033;28;20090;-71
2021/11/16 00:06:31;;;;;;;58.40;25.02;;;6.90;99.90;;;;;;5028741;28;20334;-71
2021/11/16 00:08:57;;;;;;;59.50;24.63;;;6.90;99.90;;;;;;5026530;28;20037;-71
2021/11/16 00:11:22;;;;;;;63.05;25.00;;;6.90;99.90;;;;;;5009060;28;20050;-71
2021/11/16 00:13:49;;;;;;;55.92;24.23;;;6.90;99.90;;;;;;5009653;28;20134;-70
2021/11/16 00:16:16;;;;;;;55.67;24.88;;;6.90;99.90;;;;;;5006374;28;20041;-71
2021/11/16 00:18:41;;;;;;;61.17;24.55;;;7.00;99.90;;;;;;4989144;28;20030;-71
2021/11/16 00:21:09;;;;;;;56.67;22.75;;;7.00;99.90;;;;;;5008430;28;20022;-71
2021/11/16 00:23:36;;;;;;;62.45;24.50;;;7.00;99.90;;;;;;5006499;28;20026;-72
2021/11/16 00:26:06;;;;;;;57.17;24.02;;;7.00;99.90;;;;;;5008810;28;20025;-71
2021/11/16 00:28:32;;;;;;;63.40;23.67;;;7.00;99.90;;;;;;4992348;28;20105;-70
2021/11/16 00:30:58;;;;;;;56.45;24.15;;;7.00;99.90;;;;;;5007007;28;20172;-70
2021/11/16 00:33:26;;;;;;;60.28;25.58;;;7.00;99.90;;;;;;5008199;28;20381;-70
2021/11/16 00:35:52;;;;;;;62.45;24.83;;;7.00;99.90;;;;;;5027832;28;20112;-70
2021/11/16 00:38:19;;;;;;;59.22;24.90;;;7.00;99.90;;;;;;5026606;28;20154;-71
2021/11/16 00:40:44;;;;;;;59.28;24.65;;;7.00;99.90;;;;;;5008293;28;20177;-70
2021/11/16 00:43:11;;;;;;;57.22;23.55;;;7.10;99.90;;;;;;5008034;28;20025;-70
2021/11/16 00:45:40;;;;;;;59.75;24.33;;;7.10;99.90;;;;;;5006738;28;20405;-71
2021/11/16 00:48:06;;;;;;;54.90;23.85;;;7.10;99.90;;;;;;5007741;28;20025;-71
2021/11/16 00:50:34;;;;;;;58.85;23.92;;;7.10;99.90;;;;;;5021090;28;20029;-70
2021/11/16 00:53:00;;;;;;;58.17;24.05;;;7.10;99.90;;;;;;5026933;28;20030;-71
2021/11/16 00:55:25;;;;;;;57.17;24.02;;;7.10;99.90;;;;;;5025592;28;20032;-71
2021/11/16 00:57:51;;;;;;;60.00;23.67;;;7.10;99.90;;;;;;5023662;28;20027;-71
2021/11/16 01:00:17;;;;;;;60.42;23.85;;;7.10;99.90;;;;;;5090933;28;20499;-70
2021/11/16 01:02:45;;;;;;;57.80;24.42;;;7.20;99.90;;;;;;5061389;28;20039;-70
2021/11/16 01:05:12;;;;;;;57.38;24.65;;;7.20;99.90;;;;;;5027538;28;20032;-70
2021/11/16 01:07:40;;;;;;;65.07;24.88;;;7.10;99.90;;;;;;5025879;28;20079;-71
2021/11/16 01:10:07;;;;;;;57.90;23.77;;;7.20;99.90;;;;;;5027470;28;20060;-72
2021/11/16 01:12:34;;;;;;;57.90;25.30;;;7.20;99.90;;;;;;5025814;28;20373;-70
2021/11/16 01:15:00;;;;;;;64.80;26.85;;;7.20;99.90;;;;;;5027468;28;20029;-70
2021/11/16 01:17:25;;;;;;;59.92;24.58;;;7.10;99.90;;;;;;5026249;28;20022;-71
2021/11/16 01:19:51;;;;;;;62.95;25.58;;;7.20;99.90;;;;;;5017384;28;20105;-71
2021/11/16 01:22:17;;;;;;;62.00;24.48;;;7.20;99.90;;;;;;5007492;28;20401;-71
2021/11/16 01:24:44;;;;;;;58.67;24.08;;;7.10;99.90;;;;;;5021242;28;20426;-70
2021/11/16 01:27:14;;;;;;;58.72;24.08;;;7.10;99.90;;;;;;5069835;28;20023;-70
2021/11/16 01:29:41;;;;;;;60.50;25.08;;;7.10;99.90;;;;;;5013528;28;20022;-71
2021/11/16 01:32:14;;;;;;;60.28;25.88;;;7.10;99.90;;;;;;5007386;28;20033;-71
2021/11/16 01:34:46;;;;;;;58.08;23.80;;;7.10;99.90;;;;;;5024912;28;20044;-72
2021/11/16 01:37:14;;;;;;;46.25;18.15;;;7.10;99.90;;;;;;5013721;28;20026;-70
2021/11/16 01:39:40;;;;;;;62.90;25.17;;;7.10;99.90;;;;;;5027958;28;20026;-70
2021/11/16 01:42:06;;;;;;;66.95;25.40;;;7.10;99.90;;;;;;5029612;28;20028;-70
2021/11/16 01:44:32;;;;;;;57.80;25.35;;;7.10;99.90;;;;;;5014120;28;20022;-71
2021/11/16 01:46:58;;;;;;;63.05;25.98;;;7.10;99.90;;;;;;5011020;28;20026;-71
2021/11/16 01:49:23;;;;;;;61.50;24.20;;;7.10;99.90;;;;;;5024287;28;20441;-70
2021/11/16 01:51:49;;;;;;;61.15;26.02;;;7.10;99.90;;;;;;5023943;28;20037;-71
2021/11/16 01:54:15;;;;;;;58.13;25.77;;;7.10;99.90;;;;;;5007619;28;20171;-70
2021/11/16 01:56:44;;;;;;;61.55;25.17;;;7.10;99.90;;;;;;5008758;28;20032;-70
2021/11/16 01:59:12;;;;;;;63.05;25.08;;;7.10;99.90;;;;;;5010403;28;20334;-71
2021/11/16 02:01:39;;;;;;;58.25;24.40;;;7.10;99.90;;;;;;5015279;28;20025;-70
2021/11/16 02:04:07;;;;;;;68.75;26.73;;;7.10;99.90;;;;;;5028698;28;20451;-72
2021/11/16 02:06:36;;;;;;;65.55;26.40;;;7.00;99.90;;;;;;5026225;28;20089;-70
2021/11/16 02:09:05;;;;;;;65.75;26.08;;;7.00;99.90;;;;;;5009351;28;20397;-71
2021/11/16 02:11:31;;;;;;;66.20;26.48;;;7.00;99.90;;;;;;5010431;28;20025;-71
2021/11/16 02:13:57;;;;;;;65.32;26.08;;;7.00;99.90;;;;;;5010220;28;20094;-70
2021/11/16 02:16:23;;;;;;;71.95;27.48;;;7.00;99.90;;;;;;5011637;28;20026;-70
2021/11/16 02:18:49;;;;;;;59.25;25.10;;;7.00;99.90;;;;;;5010216;28;20026;-71
2021/11/16 02:21:16;;;;;;;63.15;26.33;;;6.90;99.90;;;;;;5011560;28;20032;-70
2021/11/16 02:23:43;;;;;;;65.75;25.95;;;6.90;99.90;;;;;;5008478;28;20053;-70
2021/11/16 02:26:09;;;;;;;62.35;26.30;;;6.90;99.90;;;;;;5004759;28;20027;-70
2021/11/16 02:28:35;;;;;;;66.40;27.52;;;6.90;99.90;;;;;;5002090;28;20117;-71
2021/11/16 02:31:02;;;;;;;65.72;26.50;;;6.90;99.90;;;;;;5009197;28;20026;-70
2021/11/16 02:33:28;;;;;;;73.45;27.02;;;6.90;99.90;;;;;;5009784;28;20052;-72
2021/11/16 02:35:54;;;;;;;71.13;27.73;;;6.90;99.90;;;;;;5010147;28;20030;-70
2021/11/16 02:38:20;;;;;;;69.47;27.27;;;6.90;99.90;;;;;;5010295;28;20638;-70
2021/11/16 02:40:46;;;;;;;72.40;27.95;;;6.90;99.90;;;;;;5009588;28;20501;-70
2021/11/16 02:43:12;;;;;;;73.45;27.08;;;6.90;99.90;;;;;;5029475;28;20018;-70
2021/11/16 02:45:39;;;;;;;71.50;27.42;;;6.90;99.90;;;;;;5019388;28;20056;-70
2021/11/16 02:48:12;;;;;;;67.43;26.77;;;6.90;99.90;;;;;;5029830;28;20033;-71
2021/11/16 02:50:44;;;;;;;71.93;27.38;;;6.90;99.90;;;;;;5020410;28;20114;-70
2021/11/16 02:53:10;;;;;;;72.90;26.83;;;6.90;99.90;;;;;;5009514;28;20026;-70
2021/11/16 02:55:36;;;;;;;74.22;27.90;;;6.90;99.90;;;;;;5012221;28;20045;-70
2021/11/16 02:58:03;;;;;;;79.38;28.58;;;6.90;99.90;;;;;;5008106;28;20033;-70
2021/11/16 03:00:28;;;;;;;75.53;28.38;;;6.90;99.90;;;;;;5014746;28;20074;-70
2021/11/16 03:02:54;;;;;;;80.35;27.10;;;6.90;99.90;;;;;;5008910;28;20113;-70
2021/11/16 03:05:20;;;;;;;70.45;29.17;;;6.90;99.90;;;;;;5014622;28;20060;-71
2021/11/16 03:07:48;;;;;;;70.97;27.45;;;6.90;99.90;;;;;;5029289;28;20078;-71
2021/11/16 03:10:16;;;;;;;76.40;28.20;;;6.80;99.90;;;;;;5029437;28;20437;-71
2021/11/16 03:12:42;;;;;;;77.13;28.33;;;6.80;99.90;;;;;;5029194;28;20029;-71
2021/11/16 03:15:08;;;;;;;76.90;27.58;;;6.80;99.90;;;;;;5027911;28;20029;-71
2021/11/16 03:17:34;;;;;;;70.20;27.90;;;6.80;99.90;;;;;;5009273;28;20037;-70
2021/11/16 03:20:00;;;;;;;77.70;28.45;;;6.80;99.90;;;;;;5009372;28;20030;-71
2021/11/16 03:22:31;;;;;;;78.10;28.42;;;6.90;99.90;;;;;;5025463;28;20078;-71
2021/11/16 03:24:58;;;;;;;73.78;26.88;;;6.90;99.90;;;;;;5008862;28;20026;-71
2021/11/16 03:29:57;;;;;;;76.85;28.00;;;6.90;99.90;;;;;;5049300;28;20501;-68
2021/11/16 03:32:23;;;;;;;75.82;27.80;;;6.90;99.90;;;;;;5009525;28;20054;-68
2021/11/16 03:34:48;;;;;;;75.22;28.10;;;6.80;99.90;;;;;;5006215;28;20057;-67
2021/11/16 03:37:19;;;;;;;76.55;27.40;;;6.90;99.90;;;;;;4995993;28;20459;-68
2021/11/16 03:39:45;;;;;;;69.05;26.05;;;6.80;99.90;;;;;;4991982;28;20054;-67
2021/11/16 03:42:13;;;;;;;75.15;25.77;;;6.80;99.90;;;;;;4989659;28;20065;-68
2021/11/16 03:44:39;;;;;;;76.00;28.08;;;6.80;99.90;;;;;;5001062;28;20438;-67
2021/11/16 03:47:05;;;;;;;68.68;26.55;;;6.90;99.90;;;;;;5009133;28;20383;-68
2021/11/16 03:49:31;;;;;;;71.97;27.77;;;6.90;99.90;;;;;;5008744;28;20461;-68
2021/11/16 03:51:57;;;;;;;66.75;26.20;;;6.90;99.90;;;;;;5005875;28;20065;-68
2021/11/16 03:54:22;;;;;;;77.18;27.73;;;6.80;99.90;;;;;;5000740;28;20371;-67
2021/11/16 03:56:48;;;;;;;73.25;26.58;;;6.80;99.90;;;;;;5008916;28;20474;-67
2021/11/16 03:59:15;;;;;;;81.68;26.90;;;6.80;99.90;;;;;;4999134;28;20045;-68
2021/11/16 04:01:40;;;;;;;73.43;28.40;;;6.80;99.90;;;;;;5008116;28;20092;-66
2021/11/16 04:04:06;;;;;;;72.35;26.55;;;6.80;99.90;;;;;;5007749;28;20026;-69
2021/11/16 04:06:32;;;;;;;68.10;27.33;;;6.80;99.90;;;;;;5008744;28;20061;-68
2021/11/16 04:08:58;;;;;;;78.43;27.70;;;6.70;99.90;;;;;;5008546;28;20034;-68
2021/11/16 04:11:26;;;;;;;71.45;27.48;;;6.70;99.90;;;;;;5006124;28;20328;-68
2021/11/16 04:13:52;;;;;;;71.75;26.42;;;6.70;99.90;;;;;;5003318;28;20443;-67
2021/11/16 04:16:18;;;;;;;76.82;27.27;;;6.70;99.90;;;;;;5006981;28;20049;-68
2021/11/16 04:18:45;;;;;;;66.97;25.35;;;6.70;99.90;;;;;;5008356;28;20033;-68
2021/11/16 04:21:11;;;;;;;71.22;26.30;;;6.80;99.90;;;;;;5008507;28;20022;-67
2021/11/16 04:23:36;;;;;;;79.05;27.13;;;6.70;99.90;;;;;;5007408;28;20036;-68
2021/11/16 04:26:03;;;;;;;69.80;25.33;;;6.70;99.90;;;;;;5008567;28;20026;-68
2021/11/16 04:28:29;;;;;;;72.00;26.63;;;6.70;99.90;;;;;;4997340;28;20469;-68
2021/11/16 04:30:59;;;;;;;63.65;24.05;;;6.60;99.90;;;;;;4988956;28;20106;-68
2021/11/16 04:33:25;;;;;;;69.22;24.95;;;6.60;99.90;;;;;;5006447;28;20091;-68
2021/11/16 04:35:51;;;;;;;71.47;25.77;;;6.60;99.90;;;;;;5008565;28;20034;-68
2021/11/16 04:38:18;;;;;;;66.78;25.85;;;6.60;99.90;;;;;;5007791;28;20733;-68
2021/11/16 04:40:49;;;;;;;74.88;25.58;;;6.60;99.90;;;;;;5007599;28;20094;-67
2021/11/16 04:43:21;;;;;;;73.15;26.23;;;6.60;99.90;;;;;;5007559;28;20045;-67
2021/11/16 04:45:52;;;;;;;71.30;25.27;;;6.60;99.90;;;;;;5007626;28;20030;-68
2021/11/16 04:59:35;;;;;;;57.80;23.05;;;6.50;99.90;;;;;;4993463;28;20111;-67
2021/11/16 05:04:46;;;;;;;57.78;23.02;;;6.50;99.90;;;;;;5007528;28;20033;-67
2021/11/16 05:07:16;;;;;;;54.10;20.90;;;6.50;99.90;;;;;;5007539;28;20026;-68
2021/11/16 05:09:46;;;;;;;58.90;22.45;;;6.40;99.90;;;;;;5007843;28;20033;-68
2021/11/16 05:12:12;;;;;;;59.25;21.48;;;6.40;99.90;;;;;;5004949;28;20030;-66
2021/11/16 05:14:38;;;;;;;53.65;22.95;;;6.40;99.90;;;;;;5005208;28;20038;-67
2021/11/16 05:17:03;;;;;;;59.50;23.42;;;6.40;99.90;;;;;;5006834;28;20101;-68
2021/11/16 05:19:30;;;;;;;60.67;23.02;;;6.40;99.90;;;;;;5007551;28;20026;-68
2021/11/16 05:21:56;;;;;;;60.13;22.83;;;6.40;99.90;;;;;;5002280;28;20026;-67
2021/11/16 05:24:24;;;;;;;50.50;20.30;;;6.40;99.90;;;;;;4987417;28;20071;-67
2021/11/16 05:26:53;;;;;;;56.20;20.30;;;6.40;99.90;;;;;;4997102;28;20049;-68
2021/11/16 05:29:19;;;;;;;56.58;22.58;;;6.40;99.90;;;;;;5007161;28;20109;-67
2021/11/16 05:31:45;;;;;;;51.20;22.10;;;6.40;99.90;;;;;;5007190;28;20155;-67
2021/11/16 05:34:11;;;;;;;58.30;23.15;;;6.40;99.90;;;;;;5006379;28;20413;-67
2021/11/16 05:36:37;;;;;;;57.38;22.58;;;6.40;99.90;;;;;;5007272;28;20037;-67
2021/11/16 05:39:03;;;;;;;62.92;23.05;;;6.50;99.90;;;;;;5006821;28;20118;-68
2021/11/16 05:41:29;;;;;;;57.75;22.90;;;6.40;99.90;;;;;;5007226;28;20033;-67
2021/11/16 05:43:55;;;;;;;51.20;21.33;;;6.40;99.90;;;;;;5006041;28;20497;-68
2021/11/16 05:46:22;;;;;;;57.72;21.30;;;6.40;99.90;;;;;;5007578;28;20022;-68
2021/11/16 05:48:50;;;;;;;52.90;20.13;;;6.40;99.90;;;;;;5006113;28;20033;-68
2021/11/16 05:51:16;;;;;;;48.28;21.08;;;6.40;99.90;;;;;;5007010;28;20486;-68
2021/11/16 05:53:45;;;;;;;51.60;20.40;;;6.40;99.90;;;;;;4996376;28;20034;-69
2021/11/16 05:56:11;;;;;;;51.92;20.58;;;6.40;99.90;;;;;;5006413;28;20025;-69
2021/11/16 05:58:40;;;;;;;51.50;20.15;;;6.40;99.90;;;;;;5007690;28;20033;-67
2021/11/16 06:01:06;;;;;;;49.08;19.75;;;6.40;99.90;;;;;;5007404;28;20029;-66
2021/11/16 06:03:31;;;;;;;48.92;20.20;;;6.40;99.90;;;;;;5006966;28;20101;-67
2021/11/16 06:05:57;;;;;;;45.50;19.55;;;6.40;99.90;;;;;;5006895;28;20642;-67
2021/11/16 06:08:26;;;;;;;44.85;18.98;;;6.40;99.90;;;;;;5007745;28;20171;-68
2021/11/16 06:10:54;;;;;;;52.05;19.55;;;6.40;99.90;;;;;;5090222;28;20451;-67
2021/11/16 06:13:19;;;;;;;45.78;18.67;;;6.50;99.90;;;;;;5004683;28;20026;-67
2021/11/16 06:15:45;;;;;;;50.30;20.15;;;6.50;99.90;;;;;;5014730;28;20605;-67
2021/11/16 06:18:11;;;;;;;44.42;18.65;;;6.50;99.90;;;;;;5029162;28;20028;-68
2021/11/16 06:20:42;;;;;;;49.67;19.60;;;6.50;99.90;;;;;;5002344;28;20034;-67
2021/11/16 06:23:10;;;;;;;47.67;18.35;;;6.50;99.90;;;;;;4995249;28;20027;-68
2021/11/16 06:25:37;;;;;;;45.88;18.50;;;6.50;99.90;;;;;;4998292;28;20026;-66
2021/11/16 06:28:03;;;;;;;44.10;18.67;;;6.50;99.90;;;;;;5010621;28;20118;-67
2021/11/16 06:30:29;;;;;;;47.55;19.70;;;6.50;99.90;;;;;;5009839;28;20026;-66
2021/11/16 06:32:54;;;;;;;50.17;19.15;;;6.50;99.90;;;;;;5009597;28;20022;-68
2021/11/16 06:35:21;;;;;;;43.22;18.25;;;6.50;99.90;;;;;;5010710;28;20493;-66
2021/11/16 06:37:48;;;;;;;43.13;18.25;;;6.50;99.90;;;;;;5007436;28;20018;-70
2021/11/16 06:40:15;;;;;;;44.17;18.75;;;6.50;99.90;;;;;;4991696;28;20031;-67
2021/11/16 06:42:40;;;;;;;37.65;17.13;;;6.60;99.90;;;;;;5009983;28;20030;-69
2021/11/16 06:45:07;;;;;;;39.85;18.25;;;6.60;99.90;;;;;;5010353;28;20112;-67
2021/11/16 06:47:32;;;;;;;48.78;19.27;;;6.60;99.90;;;;;;5010723;28;20018;-66
2021/11/16 06:49:58;;;;;;;47.92;18.58;;;6.60;99.90;;;;;;5010003;28;20117;-67
2021/11/16 06:52:26;;;;;;;44.45;18.60;;;6.60;99.90;;;;;;5009085;28;20481;-66
2021/11/16 06:54:52;;;;;;;40.80;17.70;;;6.60;99.90;;;;;;5008822;28;20030;-66
2021/11/16 06:57:18;;;;;;;44.13;17.58;;;6.60;99.90;;;;;;5010827;28;20037;-66
2021/11/16 06:59:43;;;;;;;43.35;17.88;;;6.60;99.90;;;;;;5008252;28;20034;-69
2021/11/16 07:02:09;;;;;;;45.80;18.42;;;6.60;99.90;;;;;;5008625;28;20083;-66
2021/11/16 07:04:38;;;;;;;47.13;18.10;;;6.60;99.90;;;;;;5006646;28;20132;-66
2021/11/16 07:07:04;;;;;;;45.40;17.92;;;6.60;99.90;;;;;;5007349;28;20097;-70
2021/11/16 07:09:39;;;;;;;43.05;18.15;;;6.60;99.90;;;;;;5009685;28;20438;-67
2021/11/16 07:12:14;;;;;;;47.85;18.35;;;6.50;99.90;;;;;;5008538;28;20030;-66
2021/11/16 07:14:40;;;;;;;49.08;18.15;;;6.60;99.90;;;;;;5000000;28;20053;-68
2021/11/16 07:17:17;;;;;;;48.03;18.02;;;6.50;99.90;;;;;;5009643;28;20485;-67
2021/11/16 07:19:44;;;;;;;43.88;18.08;;;6.60;99.90;;;;;;5009503;28;20114;-66
2021/11/16 07:22:13;;;;;;;45.00;18.58;;;6.60;99.90;;;;;;5003180;28;20459;-69
2021/11/16 07:24:50;;;;;;;45.58;17.17;;;6.60;99.90;;;;;;4995092;28;20026;-67
2021/11/16 07:27:22;;;;;;;41.08;17.10;;;6.60;99.90;;;;;;5009055;28;20510;-66
2021/11/16 07:29:53;;;;;;;46.83;17.50;;;6.50;99.90;;;;;;5009673;28;20041;-67
2021/11/16 07:32:23;;;;;;;45.30;17.55;;;6.60;99.90;;;;;;5009753;28;20030;-66
2021/11/16 07:34:51;;;;;;;46.45;17.48;;;6.60;99.90;;;;;;5008362;28;20034;-67
2021/11/16 07:37:25;;;;;;;38.72;17.35;;;6.60;99.90;;;;;;5009311;28;20032;-67
2021/11/16 07:39:57;;;;;;;41.30;16.65;;;6.60;99.90;;;;;;5008891;28;20649;-68
2021/11/16 07:42:25;;;;;;;42.63;17.42;;;6.60;99.90;;;;;;5009872;28;20033;-68
2021/11/16 07:45:37;;;;;;;42.13;17.38;;;6.60;99.90;;;;;;5008001;28;20478;-67
2021/11/16 07:48:08;;;;;;;40.28;17.33;;;6.70;99.90;;;;;;5001021;28;20373;-67
2021/11/16 07:50:55;;;;;;;48.67;18.38;;;6.60;99.90;;;;;;5007989;28;20037;-66
2021/11/16 07:53:27;;;;;;;43.17;17.52;;;6.70;99.90;;;;;;4996938;28;20380;-66
2021/11/16 07:56:12;;;;;;;44.72;17.92;;;6.70;99.90;;;;;;5009147;28;20026;-67
2021/11/16 07:58:45;;;;;;;43.88;16.63;;;6.70;99.90;;;;;;5009400;28;20036;-67
2021/11/16 08:01:16;;;;;;;50.58;19.02;;;6.60;99.90;;;;;;5008813;28;20477;-66
2021/11/16 08:03:49;;;;;;;49.20;18.20;;;6.60;99.90;;;;;;5008553;28;20030;-66
2021/11/16 08:06:24;;;;;;;41.13;16.65;;;6.70;99.90;;;;;;5004058;28;20374;-69
2021/11/16 08:08:55;;;;;;;45.35;17.95;;;6.70;99.90;;;;;;5003151;28;20019;-67
2021/11/16 08:13:53;;;;;;;42.95;17.27;;;6.70;99.90;;;;;;5008585;28;20105;-69
2021/11/16 08:16:19;;;;;;;41.10;17.00;;;6.70;99.90;;;;;;5009079;28;20678;-70
2021/11/16 08:18:54;;;;;;;44.08;17.15;;;6.70;99.90;;;;;;5005157;28;20033;-67
2021/11/16 08:21:20;;;;;;;44.53;17.08;;;6.70;99.90;;;;;;5002648;28;20029;-70
2021/11/16 08:24:04;;;;;;;44.30;17.83;;;6.70;99.90;;;;;;4997731;28;20030;-70
2021/11/16 08:26:38;;;;;;;46.33;17.77;;;6.70;99.90;;;;;;5006748;28;20026;-67
2021/11/16 08:29:06;;;;;;;43.97;16.80;;;6.70;99.90;;;;;;5008772;28;20079;-67
2021/11/16 08:31:37;;;;;;;42.00;17.25;;;6.70;99.90;;;;;;5008568;28;20069;-71
2021/11/16 08:34:06;;;;;;;49.03;19.37;;;6.80;99.90;;;;;;4990714;28;20034;-66
2021/11/16 08:36:44;;;;;;;44.40;17.88;;;6.80;99.90;;;;;;4992120;28;20666;-68
2021/11/16 08:39:11;;;;;;;43.58;17.60;;;6.80;99.90;;;;;;5004692;28;20103;-70
2021/11/16 08:41:39;;;;;;;44.60;17.70;;;6.80;99.90;;;;;;5004422;28;20021;-68
2021/11/16 08:44:17;;;;;;;43.28;16.88;;;6.80;99.90;;;;;;4995592;28;20036;-69
2021/11/16 08:46:45;;;;;;;38.97;16.85;;;6.70;99.90;;;;;;4998999;28;20022;-67
2021/11/16 08:49:22;;;;;;;45.60;17.60;;;6.70;99.90;;;;;;5008395;28;20386;-67
2021/11/16 08:51:47;;;;;;;41.22;16.13;;;6.70;99.90;;;;;;4998229;28;20026;-67
2021/11/16 08:54:13;;;;;;;47.22;17.13;;;6.70;99.90;;;;;;5007880;28;20087;-67
2021/11/16 08:56:41;;;;;;;42.03;17.13;;;6.70;99.90;;;;;;5008709;28;20030;-67
2021/11/16 08:59:12;;;;;;;45.85;17.30;;;6.70;99.90;;;;;;5008474;28;20037;-67
2021/11/16 09:01:38;;;;;;;45.17;16.45;;;6.70;99.90;;;;;;5006837;28;20477;-67
2021/11/16 09:04:06;;;;;;;45.67;17.92;;;6.70;99.90;;;;;;5001531;28;20061;-67
2021/11/16 09:06:32;;;;;;;40.85;16.33;;;6.70;99.90;;;;;;5004981;28;20105;-67
2021/11/16 09:09:12;;;;;;;41.78;16.27;;;6.70;99.90;;;;;;5018541;28;20039;-67
2021/11/16 09:11:52;;;;;;;38.65;15.35;;;6.70;99.90;;;;;;5005122;28;20022;-67
2021/11/16 09:14:18;;;;;;;39.83;16.15;;;6.70;99.90;;;;;;4988632;28;20105;-67
2021/11/16 09:16:44;;;;;;;38.13;15.27;;;6.70;99.90;;;;;;4993216;28;20045;-67
2021/11/16 09:19:26;;;;;;;43.25;17.08;;;6.70;99.90;;;;;;5008145;28;20029;-68
2021/11/16 09:21:52;;;;;;;38.97;14.75;;;6.70;99.90;;;;;;4996096;28;20022;-67
2021/11/16 09:24:19;;;;;;;37.03;15.52;;;6.70;99.90;;;;;;4998952;28;20031;-67
2021/11/16 09:29:21;;;;;;;40.08;15.52;;;6.80;99.90;;;;;;5005906;28;20113;-68
2021/11/16 09:31:55;;;;;;;37.55;14.95;;;6.80;99.90;;;;;;5008115;28;20026;-67
2021/11/16 09:34:24;;;;;;;39.72;16.15;;;6.90;99.90;;;;;;4998959;28;20037;-68
2021/11/16 09:36:51;;;;;;;34.30;14.27;;;6.90;99.90;;;;;;5009715;28;20026;-67
2021/11/16 09:39:20;;;;;;;37.35;15.00;;;6.90;99.90;;;;;;5007891;28;20030;-68
2021/11/16 09:41:46;;;;;;;36.38;15.82;;;6.90;99.90;;;;;;5007661;28;20104;-68
2021/11/16 09:44:26;;;;;;;33.85;14.68;;;6.90;99.90;;;;;;5007273;28;20101;-68
2021/11/16 09:47:09;;;;;;;41.40;15.07;;;6.90;99.90;;;;;;5008151;28;20037;-67
2021/11/16 09:49:59;;;;;;;42.20;15.73;;;6.90;99.90;;;;;;5007640;28;20036;-68
2021/11/16 09:52:25;;;;;;;40.95;14.95;;;6.90;99.90;;;;;;5008142;28;20030;-68
2021/11/16 09:54:55;;;;;;;35.75;14.52;;;6.90;99.90;;;;;;5004508;28;20033;-68
2021/11/16 09:57:29;;;;;;;34.60;15.95;;;6.90;99.90;;;;;;5007610;28;20057;-68
2021/11/16 10:00:10;;;;;;;37.17;15.20;;;6.90;99.90;;;;;;5002202;28;20057;-68
2021/11/16 10:02:38;;;;;;;40.08;15.55;;;6.90;99.90;;;;;;5010508;28;20504;-68
2021/11/16 10:05:07;;;;;;;33.17;14.50;;;6.90;99.90;;;;;;5010878;28;20084;-68
2021/11/16 10:07:34;;;;;;;36.42;16.17;;;7.00;99.90;;;;;;5010823;28;20113;-67
2021/11/16 10:10:02;;;;;;;37.55;15.32;;;7.00;99.90;;;;;;5011567;28;20060;-68
2021/11/16 10:12:39;;;;;;;36.58;16.13;;;6.90;99.90;;;;;;5010889;28;20037;-68
2021/11/16 10:15:05;;;;;;;38.75;15.65;;;6.90;99.90;;;;;;5009249;28;20026;-68
2021/11/16 10:17:31;;;;;;;37.78;16.27;;;6.90;99.90;;;;;;5011001;28;20037;-66
2021/11/16 10:19:57;;;;;;;39.78;16.25;;;6.90;99.90;;;;;;5010585;28;20397;-67
2021/11/16 10:22:23;;;;;;;42.72;16.52;;;6.90;99.90;;;;;;5010806;28;20144;-66
2021/11/16 10:24:48;;;;;;;41.60;15.63;;;6.90;99.90;;;;;;5007871;28;20034;-68
2021/11/16 10:27:17;;;;;;;39.92;15.95;;;6.90;99.90;;;;;;5004890;28;20095;-68
2021/11/16 10:30:11;;;;;;;39.72;15.48;;;6.90;99.90;;;;;;5031053;28;20697;-68
2021/11/16 10:32:37;;;;;;;37.88;15.95;;;6.90;99.90;;;;;;4997363;28;20030;-68
2021/11/16 10:35:17;;;;;;;34.72;15.32;;;7.00;99.90;;;;;;5000034;28;20030;-68
2021/11/16 10:37:47;;;;;;;33.65;14.30;;;7.00;99.90;;;;;;5003396;28;20539;-68
2021/11/16 10:40:13;;;;;;;36.75;15.70;;;7.00;99.90;;;;;;5010607;28;20034;-68
2021/11/16 10:42:43;;;;;;;38.42;15.07;;;7.00;99.90;;;;;;5009243;28;20041;-66
2021/11/16 10:45:14;;;;;;;35.78;14.52;;;7.00;99.90;;;;;;5010087;28;20022;-68
2021/11/16 10:47:39;;;;;;;37.58;14.52;;;7.00;99.90;;;;;;5010305;28;20390;-67
2021/11/16 10:50:11;;;;;;;37.40;15.57;;;7.00;99.90;;;;;;5010666;28;20037;-66
2021/11/16 10:52:38;;;;;;;37.85;15.82;;;7.10;99.90;;;;;;5009424;28;20045;-67
2021/11/16 10:55:06;;;;;;;34.78;14.77;;;7.00;99.90;;;;;;5010515;28;20026;-66
2021/11/16 10:57:55;;;;;;;37.15;15.35;;;7.00;99.90;;;;;;5001762;28;20030;-67
2021/11/16 11:00:42;;;;;;;39.75;15.27;;;7.00;99.90;;;;;;5010766;28;20026;-68
2021/11/16 11:03:16;;;;;;;38.80;15.32;;;7.00;99.90;;;;;;5009762;28;20026;-67
2021/11/16 11:05:46;;;;;;;32.13;14.13;;;7.00;99.90;;;;;;5010077;28;20026;-68
2021/11/16 11:08:26;;;;;;;35.08;14.52;;;6.90;99.90;;;;;;5010006;28;20028;-68
2021/11/16 11:10:52;;;;;;;41.72;15.18;;;6.90;99.90;;;;;;5008670;28;20551;-68
2021/11/16 11:13:20;;;;;;;35.40;15.38;;;6.90;99.90;;;;;;5007649;28;20065;-68
2021/11/16 11:15:48;;;;;;;37.08;14.10;;;6.90;99.90;;;;;;5007161;28;20107;-69
2021/11/16 11:18:26;;;;;;;37.92;15.20;;;6.90;99.90;;;;;;5005992;28;20468;-68
2021/11/16 11:20:52;;;;;;;34.90;15.15;;;6.90;99.90;;;;;;5007089;28;20037;-66
2021/11/16 11:23:43;;;;;;;39.38;15.43;;;6.90;99.90;;;;;;5009438;28;20022;-68
2021/11/16 11:26:21;;;;;;;32.80;14.38;;;6.90;99.90;;;;;;5009157;28;20029;-67
2021/11/16 11:29:33;;;;;;;39.50;14.43;;;6.90;99.90;;;;;;5009607;28;20026;-68
2021/11/16 11:31:33;;;;;;;33.25;13.98;;;7.00;99.90;;;;;;5002236;28;20104;-68
2021/11/16 11:33:58;;;;;;;34.35;14.98;;;7.00;99.90;;;;;;5009581;28;20147;-66
2021/11/16 11:36:26;;;;;;;35.70;14.77;;;7.00;99.90;;;;;;5000291;28;20073;-69
2021/11/16 11:38:53;;;;;;;40.30;15.18;;;7.00;99.90;;;;;;5001635;28;20487;-68
2021/11/16 11:41:24;;;;;;;33.08;14.70;;;7.00;99.90;;;;;;5012451;28;20022;-67
2021/11/16 11:44:15;;;;;;;36.70;15.32;;;7.00;99.90;;;;;;5009157;28;20014;-67
2021/11/16 11:46:57;;;;;;;33.53;14.00;;;7.00;99.90;;;;;;5009476;28;20384;-67
2021/11/16 11:49:24;;;;;;;34.08;14.25;;;7.00;99.90;;;;;;5048242;28;20031;-68
2021/11/16 11:51:50;;;;;;;36.08;14.25;;;7.00;99.90;;;;;;5030609;28;20473;-68
2021/11/16 11:54:17;;;;;;;35.08;14.35;;;7.00;99.90;;;;;;5008546;28;20063;-68
2021/11/16 11:56:44;;;;;;;30.27;13.20;;;7.00;99.90;;;;;;5009384;28;20051;-67
2021/11/16 11:59:10;;;;;;;35.95;13.75;;;7.00;99.90;;;;;;5007530;28;20106;-68
2021/11/16 12:01:36;;;;;;;32.20;13.55;;;6.90;99.90;;;;;;5009589;28;20072;-66
2021/11/16 12:04:02;;;;;;;30.98;13.18;;;7.00;99.90;;;;;;5008305;28;20121;-67
2021/11/16 12:06:30;;;;;;;30.10;13.30;;;7.00;99.90;;;;;;5009488;28;20026;-68
2021/11/16 12:08:58;;;;;;;25.10;11.18;;;7.00;99.90;;;;;;5010509;28;20026;-68
2021/11/16 12:11:24;;;;;;;26.40;11.13;;;7.00;99.90;;;;;;5009116;28;20106;-67
2021/11/16 12:13:53;;;;;;;20.45;9.68;;;7.00;99.90;;;;;;5008416;28;20050;-68
2021/11/16 12:16:34;;;;;;;18.92;9.20;;;7.00;99.90;;;;;;5009389;28;20038;-69
2021/11/16 12:19:10;;;;;;;21.40;9.70;;;7.00;99.90;;;;;;5009000;28;20030;-67
2021/11/16 12:21:39;;;;;;;24.33;11.05;;;6.90;99.90;;;;;;5007229;28;20445;-68
2021/11/16 12:24:07;;;;;;;22.42;10.73;;;6.90;99.90;;;;;;4993624;28;20025;-68
2021/11/16 12:26:53;;;;;;;19.70;10.32;;;6.80;99.90;;;;;;5011858;28;20030;-68
2021/11/16 12:29:22;;;;;;;20.33;9.98;;;6.80;99.90;;;;;;4996400;28;20442;-68
2021/11/16 12:31:50;;;;;;;23.23;9.43;;;6.80;99.90;;;;;;5008932;28;20026;-66
2021/11/16 12:34:34;;;;;;;22.80;10.63;;;6.80;99.90;;;;;;5008111;28;20018;-66
2021/11/16 12:37:00;;;;;;;23.75;10.35;;;6.70;99.90;;;;;;5009117;28;20028;-69
2021/11/16 12:39:26;;;;;;;21.95;10.02;;;6.70;99.90;;;;;;5008747;28;20036;-68
2021/11/16 12:42:06;;;;;;;23.95;10.82;;;6.70;99.90;;;;;;5008537;28;20026;-67
2021/11/16 12:44:31;;;;;;;24.42;11.02;;;6.70;99.90;;;;;;5005778;28;20099;-68
2021/11/16 12:47:09;;;;;;;20.00;9.70;;;6.70;99.90;;;;;;5008126;28;20664;-66
2021/11/16 12:49:37;;;;;;;23.40;10.30;;;6.60;99.90;;;;;;5003128;28;20029;-65
2021/11/16 12:52:06;;;;;;;25.02;11.10;;;6.60;99.90;;;;;;5031284;28;20386;-67
2021/11/16 12:54:36;;;;;;;23.85;10.30;;;6.60;99.90;;;;;;5097455;28;20028;-67
2021/11/16 12:57:03;;;;;;;23.00;10.90;;;6.60;99.90;;;;;;5027084;28;20038;-67
2021/11/16 12:59:32;;;;;;;23.95;11.68;;;6.60;99.90;;;;;;5011273;28;20121;-69
2021/11/16 13:02:06;;;;;;;23.08;9.70;;;6.70;99.90;;;;;;5008843;28;20032;-67
2021/11/16 13:04:49;;;;;;;21.25;9.65;;;6.70;99.90;;;;;;5007102;28;20461;-66
2021/11/16 13:07:28;;;;;;;19.80;9.93;;;6.70;99.90;;;;;;5006777;28;20106;-67
2021/11/16 13:10:05;;;;;;;18.67;8.68;;;6.70;99.90;;;;;;4988665;28;20257;-67